Time;durP1;ratioP1;P1;durP2;ratioP2;P2;SDS_P1;SDS_P2;PMS_P1;PMS_P2;Temp;Humidity;BMP_temperature;BMP_pressure;BME280_temperature;BME280_humidity;BME280_pressure;Samples;Min_cycle;Max_cycle;Signal;HPM_P1;HPM_P2
2022/09/29 00:01:03;;;;;;;18.45;11.38;;;;;;;;;;4891716;29;20032;-60
2022/09/29 00:03:29;;;;;;;18.85;11.77;;;;;;;;;;4895758;29;20072;-61
2022/09/29 00:05:55;;;;;;;19.55;11.73;;;;;;;;;;4894968;29;20124;-60
2022/09/29 00:08:23;;;;;;;15.98;10.98;;;;;;;;;;4894673;29;20342;-60
2022/09/29 00:10:48;;;;;;;18.92;11.35;;;;;;;;;;4895014;29;20052;-60
2022/09/29 00:13:14;;;;;;;16.20;10.77;;;;;;;;;;4894780;29;20029;-60
2022/09/29 00:15:40;;;;;;;18.35;11.35;;;;;;;;;;4889573;29;20044;-61
2022/09/29 00:18:07;;;;;;;19.13;10.98;;;;;;;;;;4881980;29;20040;-60
2022/09/29 00:20:33;;;;;;;16.88;11.07;;;;;;;;;;4898222;29;20090;-60
2022/09/29 00:22:59;;;;;;;17.50;11.10;;;;;;;;;;4879797;29;20076;-60
2022/09/29 00:25:24;;;;;;;19.02;10.82;;;;;;;;;;4898775;29;20076;-60
2022/09/29 00:27:49;;;;;;;19.65;11.68;;;;;;;;;;4885812;29;20064;-60
2022/09/29 00:30:15;;;;;;;17.98;11.38;;;;;;;;;;4879891;29;20129;-60
2022/09/29 00:32:40;;;;;;;22.40;12.20;;;;;;;;;;4898889;29;20435;-60
2022/09/29 00:35:07;;;;;;;20.77;12.02;;;;;;;;;;4882529;29;20037;-61
2022/09/29 00:37:33;;;;;;;23.15;12.35;;;;;;;;;;4888727;29;20048;-60
2022/09/29 00:40:00;;;;;;;23.20;12.63;;;;;;;;;;4879910;29;20071;-60
2022/09/29 00:42:26;;;;;;;24.10;13.15;;;;;;;;;;4894408;29;20072;-60
2022/09/29 00:45:13;;;;;;;24.88;13.98;;;;;;;;;;4899074;29;20430;-60
2022/09/29 00:47:43;;;;;;;24.60;13.90;;;;;;;;;;4896651;29;20036;-60
2022/09/29 00:50:45;;;;;;;25.02;13.23;;;;;;;;;;4896595;29;20446;-60
2022/09/29 00:53:13;;;;;;;23.30;13.30;;;;;;;;;;4894858;29;20128;-60
2022/09/29 00:55:46;;;;;;;22.58;12.88;;;;;;;;;;4895716;29;20096;-60
2022/09/29 00:58:36;;;;;;;20.48;11.77;;;;;;;;;;4896984;29;20116;-60
2022/09/29 01:01:03;;;;;;;22.45;12.55;;;;;;;;;;4891830;29;20546;-61
2022/09/29 01:03:34;;;;;;;20.30;12.55;;;;;;;;;;4896778;29;20036;-60
2022/09/29 01:06:12;;;;;;;22.23;12.13;;;;;;;;;;4895837;29;20128;-60
2022/09/29 01:09:00;;;;;;;18.67;11.27;;;;;;;;;;4897256;29;20060;-60
2022/09/29 01:11:26;;;;;;;21.33;11.85;;;;;;;;;;4879582;29;20383;-60
2022/09/29 01:13:54;;;;;;;18.67;11.85;;;;;;;;;;4897940;29;20041;-61
2022/09/29 01:16:19;;;;;;;21.63;11.27;;;;;;;;;;4896489;29;20054;-60
2022/09/29 01:18:45;;;;;;;22.05;11.52;;;;;;;;;;4897284;29;20466;-60
2022/09/29 01:21:36;;;;;;;19.70;11.60;;;;;;;;;;4895578;29;20032;-60
2022/09/29 01:24:10;;;;;;;19.50;11.40;;;;;;;;;;4880339;29;20107;-60
2022/09/29 01:26:58;;;;;;;21.20;12.32;;;;;;;;;;4894243;29;20350;-60
2022/09/29 01:29:51;;;;;;;22.67;13.43;;;;;;;;;;4895932;29;20091;-60
2022/09/29 01:32:54;;;;;;;22.63;12.30;;;;;;;;;;4896431;29;20095;-60
2022/09/29 01:35:29;;;;;;;19.35;11.75;;;;;;;;;;4893958;29;20040;-60
2022/09/29 01:38:26;;;;;;;21.20;12.15;;;;;;;;;;4896245;29;20036;-60
2022/09/29 01:41:02;;;;;;;21.13;12.30;;;;;;;;;;4888261;29;20140;-60
2022/09/29 01:43:35;;;;;;;21.35;12.23;;;;;;;;;;4894763;29;20474;-60
2022/09/29 01:46:08;;;;;;;21.25;12.23;;;;;;;;;;4877729;29;20095;-60
2022/09/29 01:48:38;;;;;;;23.98;13.25;;;;;;;;;;4895495;29;20029;-61
2022/09/29 01:51:10;;;;;;;26.58;13.70;;;;;;;;;;4896187;29;20032;-60
2022/09/29 01:53:46;;;;;;;30.73;13.45;;;;;;;;;;4896951;29;20149;-60
2022/09/29 01:56:35;;;;;;;25.85;13.07;;;;;;;;;;4893977;29;20043;-60
2022/09/29 01:59:16;;;;;;;27.30;13.82;;;;;;;;;;4896105;29;20059;-60
2022/09/29 02:01:43;;;;;;;26.13;13.35;;;;;;;;;;4882936;29;20041;-60
2022/09/29 02:04:24;;;;;;;27.08;14.07;;;;;;;;;;4892683;29;20524;-60
2022/09/29 02:07:15;;;;;;;21.60;12.25;;;;;;;;;;4890238;29;20464;-61
2022/09/29 02:09:44;;;;;;;20.23;12.07;;;;;;;;;;4895309;29;20055;-60
2022/09/29 02:12:13;;;;;;;21.27;11.70;;;;;;;;;;4890368;29;20044;-61
2022/09/29 02:14:46;;;;;;;26.27;12.98;;;;;;;;;;4896206;29;20181;-60
2022/09/29 02:17:19;;;;;;;21.45;12.60;;;;;;;;;;4894969;29;20474;-61
2022/09/29 02:19:47;;;;;;;20.75;11.25;;;;;;;;;;4895295;29;20040;-61
2022/09/29 02:22:13;;;;;;;22.73;11.65;;;;;;;;;;4896064;29;20518;-60
2022/09/29 02:24:39;;;;;;;22.27;11.90;;;;;;;;;;4896120;29;20119;-61
2022/09/29 02:27:04;;;;;;;19.27;11.45;;;;;;;;;;4891887;29;20478;-60
2022/09/29 02:29:32;;;;;;;20.17;10.82;;;;;;;;;;4896485;29;20145;-60
2022/09/29 02:32:01;;;;;;;16.85;10.82;;;;;;;;;;4893713;29;20033;-60
2022/09/29 02:34:30;;;;;;;21.35;11.02;;;;;;;;;;4896799;29;20036;-60
2022/09/29 02:37:19;;;;;;;18.80;11.00;;;;;;;;;;4893163;29;20036;-60
2022/09/29 02:40:07;;;;;;;19.00;10.52;;;;;;;;;;4882668;29;20056;-60
2022/09/29 02:42:57;;;;;;;19.70;10.68;;;;;;;;;;4890188;29;20041;-60
2022/09/29 02:45:50;;;;;;;18.10;11.05;;;;;;;;;;4894150;29;20044;-60
2022/09/29 02:48:21;;;;;;;18.98;10.70;;;;;;;;;;4887527;29;20609;-60
2022/09/29 02:51:12;;;;;;;18.48;11.10;;;;;;;;;;4893593;29;20065;-60
2022/09/29 02:53:46;;;;;;;23.87;11.20;;;;;;;;;;4885500;29;20069;-60
2022/09/29 02:56:35;;;;;;;16.92;10.60;;;;;;;;;;4892959;29;20079;-60
2022/09/29 02:59:06;;;;;;;18.70;10.82;;;;;;;;;;4876106;29;20048;-60
2022/09/29 03:01:33;;;;;;;18.42;11.00;;;;;;;;;;4894416;29;20115;-60
2022/09/29 03:03:59;;;;;;;19.17;10.77;;;;;;;;;;4892289;29;20044;-60
2022/09/29 03:06:24;;;;;;;19.08;11.05;;;;;;;;;;4886656;29;20488;-60
2022/09/29 03:08:50;;;;;;;21.15;10.73;;;;;;;;;;4870437;29;20089;-60
2022/09/29 03:11:15;;;;;;;22.50;10.52;;;;;;;;;;4884337;29;20126;-60
2022/09/29 03:13:41;;;;;;;21.75;11.93;;;;;;;;;;4892384;29;20028;-60
2022/09/29 03:16:06;;;;;;;19.23;10.98;;;;;;;;;;4876011;29;20119;-60
2022/09/29 03:18:32;;;;;;;19.40;11.27;;;;;;;;;;4886886;29;20047;-60
2022/09/29 03:20:57;;;;;;;22.48;11.30;;;;;;;;;;4892980;29;20051;-60
2022/09/29 03:23:22;;;;;;;19.45;10.77;;;;;;;;;;4894911;29;20474;-60
2022/09/29 03:25:48;;;;;;;19.70;11.30;;;;;;;;;;4887858;29;20051;-60
2022/09/29 03:28:15;;;;;;;18.88;11.20;;;;;;;;;;4879382;29;20462;-60
2022/09/29 03:30:41;;;;;;;19.08;11.02;;;;;;;;;;4889263;29;20029;-60
2022/09/29 03:33:06;;;;;;;20.10;11.77;;;;;;;;;;4894000;29;20048;-60
2022/09/29 03:35:31;;;;;;;21.13;11.77;;;;;;;;;;4893656;29;20084;-60
2022/09/29 03:37:59;;;;;;;22.00;11.52;;;;;;;;;;4893937;29;20452;-60
2022/09/29 03:40:26;;;;;;;20.45;11.80;;;;;;;;;;4887713;29;20032;-60
2022/09/29 03:42:51;;;;;;;21.45;12.02;;;;;;;;;;4894244;29;20115;-59
2022/09/29 03:45:17;;;;;;;20.17;11.98;;;;;;;;;;4893773;29;20622;-60
2022/09/29 03:47:42;;;;;;;20.35;12.18;;;;;;;;;;4894300;29;20065;-60
2022/09/29 03:50:08;;;;;;;19.75;11.60;;;;;;;;;;4892345;29;20497;-60
2022/09/29 03:52:33;;;;;;;26.75;12.52;;;;;;;;;;4893831;29;20044;-60
2022/09/29 03:54:59;;;;;;;22.83;12.50;;;;;;;;;;4886914;29;20037;-60
2022/09/29 03:57:24;;;;;;;21.13;12.18;;;;;;;;;;4897108;29;20117;-60
2022/09/29 03:59:49;;;;;;;20.80;11.95;;;;;;;;;;4898817;29;20370;-60
2022/09/29 04:02:17;;;;;;;23.02;11.88;;;;;;;;;;4897336;29;20044;-60
2022/09/29 04:04:43;;;;;;;22.15;12.55;;;;;;;;;;4897708;29;20055;-60
2022/09/29 04:07:08;;;;;;;28.00;14.07;;;;;;;;;;4896101;29;20049;-60
2022/09/29 04:09:34;;;;;;;29.70;16.88;;;;;;;;;;4893056;29;20037;-60
2022/09/29 04:11:59;;;;;;;31.58;17.92;;;;;;;;;;4893050;29;20047;-60
2022/09/29 04:14:24;;;;;;;38.63;19.33;;;;;;;;;;4899915;29;20525;-60
2022/09/29 04:16:50;;;;;;;31.23;16.83;;;;;;;;;;4879543;29;20033;-60
2022/09/29 04:19:15;;;;;;;32.72;17.25;;;;;;;;;;4894040;29;20037;-60
2022/09/29 04:21:40;;;;;;;32.83;16.83;;;;;;;;;;4895716;29;20028;-60
2022/09/29 04:24:06;;;;;;;31.25;16.45;;;;;;;;;;4898204;29;20036;-60
2022/09/29 04:26:31;;;;;;;30.90;15.80;;;;;;;;;;4898963;29;20553;-61
2022/09/29 04:28:58;;;;;;;25.08;14.88;;;;;;;;;;4897536;29;20080;-60
2022/09/29 04:31:23;;;;;;;24.65;13.85;;;;;;;;;;4891338;29;20065;-60
2022/09/29 04:33:49;;;;;;;24.30;13.75;;;;;;;;;;4888244;29;20402;-61
2022/09/29 04:36:14;;;;;;;23.60;13.82;;;;;;;;;;4898482;29;20058;-61
2022/09/29 04:38:39;;;;;;;27.75;13.50;;;;;;;;;;4897524;29;20674;-61
2022/09/29 04:41:05;;;;;;;23.58;13.77;;;;;;;;;;4898771;29;20075;-61
2022/09/29 04:43:30;;;;;;;24.20;14.18;;;;;;;;;;4882939;29;20037;-61
2022/09/29 04:46:06;;;;;;;28.52;14.35;;;;;;;;;;4884865;29;20032;-61
2022/09/29 04:48:33;;;;;;;32.90;15.77;;;;;;;;;;4880231;29;20483;-61
2022/09/29 04:50:58;;;;;;;31.75;15.65;;;;;;;;;;4889999;29;20116;-61
2022/09/29 04:53:23;;;;;;;34.75;16.83;;;;;;;;;;4889714;29;20120;-60
2022/09/29 04:55:49;;;;;;;31.48;15.32;;;;;;;;;;4899002;29;20029;-60
2022/09/29 04:58:14;;;;;;;32.75;15.80;;;;;;;;;;4894359;29;20047;-61
2022/09/29 05:00:40;;;;;;;32.72;15.80;;;;;;;;;;4895714;29;20035;-62
2022/09/29 05:03:05;;;;;;;29.75;15.02;;;;;;;;;;4897167;29;20091;-61
2022/09/29 05:05:30;;;;;;;26.83;14.68;;;;;;;;;;4898120;29;20123;-62
2022/09/29 05:07:58;;;;;;;29.98;14.57;;;;;;;;;;4889819;29;20088;-61
2022/09/29 05:10:24;;;;;;;29.75;14.57;;;;;;;;;;4892800;29;20422;-61
2022/09/29 05:12:49;;;;;;;27.10;13.60;;;;;;;;;;4898372;29;20121;-61
2022/09/29 05:15:17;;;;;;;26.13;13.38;;;;;;;;;;4881430;29;20036;-63
2022/09/29 05:17:42;;;;;;;23.38;13.10;;;;;;;;;;4895724;29;20036;-63
2022/09/29 05:20:08;;;;;;;26.45;15.10;;;;;;;;;;4888033;29;20040;-64
2022/09/29 05:22:33;;;;;;;27.75;14.70;;;;;;;;;;4873471;29;20029;-65
2022/09/29 05:24:59;;;;;;;25.23;14.52;;;;;;;;;;4895809;29;20470;-62
2022/09/29 05:27:24;;;;;;;27.20;14.00;;;;;;;;;;4897535;29;20088;-64
2022/09/29 05:29:49;;;;;;;23.23;13.75;;;;;;;;;;4897382;29;20047;-65
2022/09/29 05:32:15;;;;;;;27.38;14.02;;;;;;;;;;4897435;29;20024;-65
2022/09/29 05:34:41;;;;;;;24.70;13.50;;;;;;;;;;4891582;29;20033;-61
2022/09/29 05:37:06;;;;;;;22.25;12.93;;;;;;;;;;4881713;29;20040;-65
2022/09/29 05:39:33;;;;;;;23.70;13.35;;;;;;;;;;4896857;29;20033;-64
2022/09/29 05:42:00;;;;;;;23.95;13.13;;;;;;;;;;4896863;29;20506;-61
2022/09/29 05:44:25;;;;;;;28.77;14.68;;;;;;;;;;4873625;29;20470;-64
2022/09/29 05:46:51;;;;;;;27.17;14.18;;;;;;;;;;4896254;29;20039;-64
2022/09/29 05:49:18;;;;;;;25.63;14.18;;;;;;;;;;4896189;29;20604;-65
2022/09/29 05:51:43;;;;;;;23.90;13.20;;;;;;;;;;4897809;29;20418;-65
2022/09/29 05:54:09;;;;;;;27.23;14.18;;;;;;;;;;4895344;29;20065;-66
2022/09/29 05:56:34;;;;;;;27.60;13.70;;;;;;;;;;4897490;29;20493;-66
2022/09/29 05:59:00;;;;;;;27.27;13.57;;;;;;;;;;4895943;29;20137;-64
2022/09/29 06:01:26;;;;;;;26.05;12.82;;;;;;;;;;4897380;29;20111;-63
2022/09/29 06:03:55;;;;;;;25.17;12.90;;;;;;;;;;4895999;29;20037;-71
2022/09/29 06:06:26;;;;;;;21.80;12.57;;;;;;;;;;4897131;29;20036;-63
2022/09/29 06:08:52;;;;;;;25.25;13.68;;;;;;;;;;4895343;29;20059;-62
2022/09/29 06:11:23;;;;;;;22.42;12.98;;;;;;;;;;4893046;29;20108;-63
2022/09/29 06:13:49;;;;;;;;;;;;;;;;;;4890645;29;20128;-64
2022/09/29 06:16:17;;;;;;;21.95;11.82;;;;;;;;;;4886924;29;20183;-63
2022/09/29 06:18:42;;;;;;;22.00;11.55;;;;;;;;;;4895629;29;20036;-62
2022/09/29 06:21:27;;;;;;;24.10;12.55;;;;;;;;;;4894802;29;20055;-62
2022/09/29 06:23:54;;;;;;;24.30;12.55;;;;;;;;;;4894309;29;20036;-62
2022/09/29 06:26:20;;;;;;;22.42;12.70;;;;;;;;;;4894612;29;20055;-63
2022/09/29 06:28:46;;;;;;;23.75;13.02;;;;;;;;;;4892292;29;20505;-65
2022/09/29 06:31:14;;;;;;;24.25;12.85;;;;;;;;;;4896167;29;20033;-66
2022/09/29 06:33:40;;;;;;;25.25;13.13;;;;;;;;;;4892451;29;20040;-65
2022/09/29 06:39:15;;;;;;;27.75;13.63;;;;;;;;;;4884016;29;20124;-64
2022/09/29 06:41:43;;;;;;;24.92;14.30;;;;;;;;;;4878219;29;20029;-62
2022/09/29 06:44:09;;;;;;;32.15;16.00;;;;;;;;;;4886063;29;20041;-64
2022/09/29 06:46:34;;;;;;;34.30;16.13;;;;;;;;;;4894282;29;20546;-65
2022/09/29 06:49:00;;;;;;;33.88;16.08;;;;;;;;;;4889197;29;20103;-64
2022/09/29 06:51:25;;;;;;;31.08;15.77;;;;;;;;;;4890540;29;20474;-65
2022/09/29 06:53:51;;;;;;;31.50;15.40;;;;;;;;;;4888560;29;20462;-64
2022/09/29 06:56:17;;;;;;;27.00;14.35;;;;;;;;;;4877215;29;20647;-71
2022/09/29 06:58:44;;;;;;;30.00;15.60;;;;;;;;;;4883605;29;20032;-67
2022/09/29 07:01:09;;;;;;;34.25;16.52;;;;;;;;;;4892685;29;20036;-65
2022/09/29 07:03:34;;;;;;;37.63;18.40;;;;;;;;;;4891387;29;20435;-66
2022/09/29 07:06:04;;;;;;;38.75;18.88;;;;;;;;;;4895629;29;20049;-66
2022/09/29 07:08:30;;;;;;;36.00;18.45;;;;;;;;;;4881869;29;20112;-65
2022/09/29 07:10:56;;;;;;;39.80;20.00;;;;;;;;;;4880402;29;20088;-61
2022/09/29 07:13:21;;;;;;;39.60;21.63;;;;;;;;;;4881724;29;20108;-62
2022/09/29 07:15:47;;;;;;;35.97;20.35;;;;;;;;;;4896278;29;20040;-65
2022/09/29 07:18:13;;;;;;;33.03;17.92;;;;;;;;;;4892623;29;20390;-65
2022/09/29 07:20:39;;;;;;;34.47;19.27;;;;;;;;;;4895246;29;20051;-67
2022/09/29 07:23:06;;;;;;;31.98;16.95;;;;;;;;;;4876753;29;20037;-64
2022/09/29 07:25:33;;;;;;;33.80;18.30;;;;;;;;;;4894652;29;20055;-64
2022/09/29 07:27:59;;;;;;;43.80;19.38;;;;;;;;;;4889910;29;20115;-62
2022/09/29 07:30:26;;;;;;;36.85;18.25;;;;;;;;;;4890626;29;20595;-65
2022/09/29 07:32:52;;;;;;;37.42;18.42;;;;;;;;;;4893074;29;20080;-64
2022/09/29 07:35:18;;;;;;;33.53;18.35;;;;;;;;;;4890936;29;20039;-62
2022/09/29 07:37:53;;;;;;;41.17;20.00;;;;;;;;;;4893075;29;20028;-66
2022/09/29 07:40:22;;;;;;;41.92;20.63;;;;;;;;;;4891668;29;20914;-64
2022/09/29 07:42:48;;;;;;;42.38;21.45;;;;;;;;;;4886472;29;20060;-64
2022/09/29 07:45:15;;;;;;;38.97;20.73;;;;;;;;;;4894479;29;20123;-64
2022/09/29 07:47:40;;;;;;;38.67;21.10;;;;;;;;;;4894629;29;20099;-65
2022/09/29 07:50:06;;;;;;;33.55;19.42;;;;;;;;;;4893316;29;20040;-64
2022/09/29 07:52:31;;;;;;;32.17;18.45;;;;;;;;;;4878953;29;20543;-63
2022/09/29 07:54:56;;;;;;;32.58;18.00;;;;;;;;;;4877090;29;20368;-62
2022/09/29 07:57:22;;;;;;;32.10;18.45;;;;;;;;;;4889936;29;20538;-63
2022/09/29 07:59:47;;;;;;;30.40;18.80;;;;;;;;;;4891800;29;20108;-64
2022/09/29 08:02:12;;;;;;;31.02;17.23;;;;;;;;;;4879104;29;20059;-65
2022/09/29 08:04:38;;;;;;;30.83;17.35;;;;;;;;;;4889119;29;20056;-66
2022/09/29 08:07:03;;;;;;;28.90;16.95;;;;;;;;;;4884188;29;20045;-67
2022/09/29 08:09:29;;;;;;;28.55;16.85;;;;;;;;;;4878668;29;20398;-69
2022/09/29 08:11:54;;;;;;;29.40;17.15;;;;;;;;;;4893334;29;20037;-64
2022/09/29 08:14:19;;;;;;;26.08;16.33;;;;;;;;;;4893886;29;20049;-65
2022/09/29 08:16:45;;;;;;;27.95;16.45;;;;;;;;;;4895804;29;20385;-65
2022/09/29 08:19:10;;;;;;;26.90;16.58;;;;;;;;;;4893419;29;20488;-68
2022/09/29 08:21:36;;;;;;;25.27;15.52;;;;;;;;;;4895807;29;20067;-68
2022/09/29 08:24:05;;;;;;;28.27;16.02;;;;;;;;;;4893820;29;20059;-66
2022/09/29 08:26:36;;;;;;;27.08;15.27;;;;;;;;;;4889545;29;20041;-67
2022/09/29 08:29:02;;;;;;;;;;;;;;;;;;4883378;29;20040;-67
2022/09/29 08:31:27;;;;;;;24.73;14.63;;;;;;;;;;4895553;29;19912;-67
2022/09/29 08:33:55;;;;;;;20.98;14.45;;;;;;;;;;4895203;29;20032;-68
2022/09/29 08:36:21;;;;;;;24.15;14.55;;;;;;;;;;4873621;29;20048;-65
2022/09/29 08:38:51;;;;;;;19.70;13.20;;;;;;;;;;4893180;29;20667;-66
2022/09/29 08:41:31;;;;;;;18.77;13.07;;;;;;;;;;4897521;29;20029;-67
2022/09/29 08:44:03;;;;;;;21.75;13.45;;;;;;;;;;4890085;29;20153;-62
2022/09/29 08:46:29;;;;;;;17.55;11.85;;;;;;;;;;4882642;29;20032;-65
2022/09/29 08:48:57;;;;;;;21.83;11.80;;;;;;;;;;4897569;29;20076;-65
2022/09/29 08:51:38;;;;;;;18.90;11.43;;;;;;;;;;4889291;29;20169;-63
2022/09/29 08:54:12;;;;;;;18.00;10.70;;;;;;;;;;4898132;29;20104;-65
2022/09/29 08:56:37;;;;;;;15.73;11.15;;;;;;;;;;4898170;29;20063;-65
2022/09/29 08:59:03;;;;;;;17.35;11.73;;;;;;;;;;4896401;29;20469;-64
2022/09/29 09:01:28;;;;;;;16.05;10.20;;;;;;;;;;4883972;29;20128;-63
2022/09/29 09:04:04;;;;;;;16.40;10.23;;;;;;;;;;4898792;29;20504;-63
2022/09/29 09:06:54;;;;;;;20.55;10.90;;;;;;;;;;4895059;29;20492;-66
2022/09/29 09:09:34;;;;;;;16.08;10.75;;;;;;;;;;4895059;29;20028;-63
2022/09/29 09:12:14;;;;;;;14.25;10.38;;;;;;;;;;4898081;29;20194;-62
2022/09/29 09:14:58;;;;;;;14.77;10.38;;;;;;;;;;4894300;29;20131;-64
2022/09/29 09:17:58;;;;;;;14.77;9.27;;;;;;;;;;4896894;29;20111;-64
2022/09/29 09:20:44;;;;;;;10.05;7.38;;;;;;;;;;4887365;29;20481;-65
2022/09/29 09:23:12;;;;;;;14.80;8.35;;;;;;;;;;4887958;29;20044;-64
2022/09/29 09:25:46;;;;;;;11.35;7.40;;;;;;;;;;4879568;29;20048;-64
2022/09/29 09:28:28;;;;;;;13.05;7.63;;;;;;;;;;4886102;29;20493;-65
2022/09/29 09:31:31;;;;;;;9.63;6.38;;;;;;;;;;4881836;29;20067;-63
2022/09/29 09:34:15;;;;;;;10.55;6.85;;;;;;;;;;4888320;29;20029;-63
2022/09/29 09:36:46;;;;;;;8.98;5.50;;;;;;;;;;4897102;29;20044;-67
2022/09/29 09:39:41;;;;;;;10.18;5.65;;;;;;;;;;4893536;29;20040;-65
2022/09/29 09:42:14;;;;;;;8.93;5.70;;;;;;;;;;4887604;29;20131;-65
2022/09/29 09:44:47;;;;;;;8.10;5.28;;;;;;;;;;4897876;29;20071;-65
2022/09/29 09:47:36;;;;;;;7.47;5.10;;;;;;;;;;4896747;29;20029;-65
2022/09/29 09:50:17;;;;;;;8.73;4.63;;;;;;;;;;4890007;29;20047;-64
2022/09/29 09:53:00;;;;;;;7.30;4.50;;;;;;;;;;4897687;29;20068;-64
2022/09/29 09:55:26;;;;;;;6.28;3.47;;;;;;;;;;4897486;29;20100;-64
2022/09/29 09:58:32;;;;;;;6.88;4.10;;;;;;;;;;4877631;29;20036;-64
2022/09/29 10:01:01;;;;;;;7.72;3.90;;;;;;;;;;4897545;29;20389;-62
2022/09/29 10:03:27;;;;;;;7.97;4.22;;;;;;;;;;4894593;29;20032;-63
2022/09/29 10:05:53;;;;;;;7.90;4.22;;;;;;;;;;4886451;29;20049;-63
2022/09/29 10:08:29;;;;;;;6.95;4.85;;;;;;;;;;4892137;29;20731;-63
2022/09/29 10:10:56;;;;;;;6.10;4.15;;;;;;;;;;4894649;29;20036;-65
2022/09/29 10:13:25;;;;;;;7.95;4.20;;;;;;;;;;4893865;29;20078;-64
2022/09/29 10:16:03;;;;;;;3.60;2.15;;;;;;;;;;4896206;29;20482;-64
2022/09/29 10:18:35;;;;;;;2.88;1.70;;;;;;;;;;4883735;29;20040;-64
2022/09/29 10:21:00;;;;;;;5.85;3.40;;;;;;;;;;4896326;29;20033;-62
2022/09/29 10:23:34;;;;;;;6.47;3.20;;;;;;;;;;4894398;29;20059;-62
2022/09/29 10:26:16;;;;;;;5.80;3.25;;;;;;;;;;4893786;29;20055;-62
2022/09/29 10:28:51;;;;;;;5.05;3.60;;;;;;;;;;4895501;29;20044;-61
2022/09/29 10:31:29;;;;;;;8.98;3.97;;;;;;;;;;4895832;29;20615;-61
2022/09/29 10:34:08;;;;;;;6.80;3.33;;;;;;;;;;4897204;29;20033;-61
2022/09/29 10:36:51;;;;;;;6.68;3.83;;;;;;;;;;4894396;29;20036;-61
2022/09/29 10:40:02;;;;;;;6.38;3.55;;;;;;;;;;4868395;29;20606;-62
2022/09/29 10:42:37;;;;;;;5.40;3.95;;;;;;;;;;4834688;29;20052;-60
2022/09/29 10:45:25;;;;;;;5.60;3.50;;;;;;;;;;4885270;29;20124;-63
2022/09/29 10:47:56;;;;;;;6.35;4.20;;;;;;;;;;4892631;29;20087;-63
2022/09/29 10:50:25;;;;;;;6.38;4.15;;;;;;;;;;4895319;29;20075;-64
2022/09/29 10:52:56;;;;;;;8.68;3.67;;;;;;;;;;4895446;29;20386;-63
2022/09/29 10:55:25;;;;;;;7.57;3.15;;;;;;;;;;4896249;29;20035;-63
2022/09/29 10:57:55;;;;;;;4.43;2.90;;;;;;;;;;4895869;29;20040;-61
2022/09/29 11:00:32;;;;;;;5.38;2.83;;;;;;;;;;4875488;29;20123;-61
2022/09/29 11:03:14;;;;;;;5.82;2.75;;;;;;;;;;4877760;29;20033;-61
2022/09/29 11:05:51;;;;;;;5.57;2.75;;;;;;;;;;4894223;29;20048;-62
2022/09/29 11:08:18;;;;;;;3.67;2.40;;;;;;;;;;4894848;29;20037;-62
2022/09/29 11:10:46;;;;;;;4.13;2.40;;;;;;;;;;4894604;29;20080;-62
2022/09/29 11:13:35;;;;;;;5.38;2.40;;;;;;;;;;4895572;29;20486;-64
2022/09/29 11:16:30;;;;;;;4.15;2.72;;;;;;;;;;4892842;29;20397;-63
2022/09/29 11:19:01;;;;;;;5.22;2.58;;;;;;;;;;4895492;29;20797;-63
2022/09/29 11:21:41;;;;;;;5.90;2.50;;;;;;;;;;4896308;29;20474;-62
2022/09/29 11:24:32;;;;;;;4.60;2.70;;;;;;;;;;4894121;29;20036;-62
2022/09/29 11:27:19;;;;;;;3.67;2.38;;;;;;;;;;4882678;29;20062;-63
2022/09/29 11:30:02;;;;;;;4.90;2.33;;;;;;;;;;4893349;29;20037;-64
2022/09/29 11:32:39;;;;;;;3.70;2.20;;;;;;;;;;4882746;29;20037;-63
2022/09/29 11:35:31;;;;;;;5.40;2.60;;;;;;;;;;4893202;29;20033;-65
2022/09/29 11:38:08;;;;;;;4.22;2.35;;;;;;;;;;4887490;29;20045;-61
2022/09/29 11:40:52;;;;;;;4.07;2.60;;;;;;;;;;4895960;29;20068;-65
2022/09/29 11:43:43;;;;;;;4.70;2.70;;;;;;;;;;4894221;29;20168;-65
2022/09/29 11:46:34;;;;;;;6.43;2.90;;;;;;;;;;4895435;29;20087;-65
2022/09/29 11:49:23;;;;;;;7.47;4.20;;;;;;;;;;4881791;29;20394;-62
2022/09/29 11:52:23;;;;;;;6.50;4.07;;;;;;;;;;4892960;29;20084;-64
2022/09/29 11:55:15;;;;;;;8.38;3.95;;;;;;;;;;4862867;29;20096;-63
2022/09/29 11:58:17;;;;;;;6.13;4.05;;;;;;;;;;4891577;29;20072;-65
2022/09/29 12:01:10;;;;;;;5.95;3.60;;;;;;;;;;4894102;29;20079;-64
2022/09/29 12:03:59;;;;;;;6.15;4.00;;;;;;;;;;4877378;29;20047;-64
2022/09/29 12:06:48;;;;;;;6.57;3.35;;;;;;;;;;4860411;29;20562;-64
2022/09/29 12:09:19;;;;;;;6.53;3.60;;;;;;;;;;4875107;29;20348;-64
2022/09/29 12:11:54;;;;;;;6.28;3.42;;;;;;;;;;4877937;29;20097;-61
2022/09/29 12:14:26;;;;;;;7.40;3.30;;;;;;;;;;4868592;29;20072;-63
2022/09/29 12:16:57;;;;;;;5.82;3.30;;;;;;;;;;4880655;29;20033;-63
2022/09/29 12:19:25;;;;;;;;;;;;;;;;;;4878637;29;20068;-63
2022/09/29 12:21:52;;;;;;;6.07;3.60;;;;;;;;;;4879586;29;19916;-63
2022/09/29 12:24:28;;;;;;;7.45;3.55;;;;;;;;;;4876149;29;20046;-63
2022/09/29 12:26:54;;;;;;;6.00;3.70;;;;;;;;;;4873549;29;20466;-63
2022/09/29 12:29:34;;;;;;;8.48;3.80;;;;;;;;;;4879457;29;20044;-62
2022/09/29 12:32:08;;;;;;;6.35;3.40;;;;;;;;;;4866526;29;20474;-62
2022/09/29 12:34:56;;;;;;;6.40;3.50;;;;;;;;;;4867442;29;20043;-63
2022/09/29 12:37:40;;;;;;;3.90;2.88;;;;;;;;;;4876115;29;20093;-62
2022/09/29 12:40:53;;;;;;;5.22;2.83;;;;;;;;;;4874748;29;20489;-62
2022/09/29 12:43:29;;;;;;;6.18;3.17;;;;;;;;;;4855132;29;20037;-64
2022/09/29 12:46:29;;;;;;;5.97;2.50;;;;;;;;;;4877609;29;20049;-62
2022/09/29 12:49:00;;;;;;;4.97;3.10;;;;;;;;;;4879673;29;20108;-62
2022/09/29 12:51:40;;;;;;;5.60;2.88;;;;;;;;;;4879951;29;20368;-63
2022/09/29 12:54:23;;;;;;;7.47;3.03;;;;;;;;;;4877604;29;20032;-61
2022/09/29 12:57:07;;;;;;;4.68;2.90;;;;;;;;;;4880236;29;20565;-62
2022/09/29 12:59:54;;;;;;;8.07;3.20;;;;;;;;;;4878653;29;20068;-64
2022/09/29 13:02:25;;;;;;;6.65;3.08;;;;;;;;;;4878007;29;20552;-62
2022/09/29 13:04:56;;;;;;;6.60;3.20;;;;;;;;;;4885325;29;20059;-62
2022/09/29 13:07:38;;;;;;;5.75;3.17;;;;;;;;;;4891735;29;20040;-62
2022/09/29 13:10:36;;;;;;;6.57;3.30;;;;;;;;;;4886674;29;20053;-61
2022/09/29 13:13:30;;;;;;;5.78;3.10;;;;;;;;;;4897046;29;20040;-62
2022/09/29 13:16:30;;;;;;;4.10;2.60;;;;;;;;;;4892295;29;20100;-61
2022/09/29 13:19:38;;;;;;;5.60;3.08;;;;;;;;;;4897847;29;20088;-63
2022/09/29 13:22:13;;;;;;;4.05;2.95;;;;;;;;;;4896735;29;20033;-63
2022/09/29 13:24:57;;;;;;;4.38;2.85;;;;;;;;;;4897653;29;20036;-63
2022/09/29 13:27:43;;;;;;;7.82;3.20;;;;;;;;;;4896413;29;20127;-63
2022/09/29 13:30:12;;;;;;;6.68;3.38;;;;;;;;;;4896068;29;20057;-62
2022/09/29 13:32:43;;;;;;;7.45;3.40;;;;;;;;;;4897377;29;20502;-64
2022/09/29 13:35:49;;;;;;;5.82;3.33;;;;;;;;;;4895342;29;20099;-65
2022/09/29 13:38:22;;;;;;;7.07;3.20;;;;;;;;;;4896456;29;20044;-64
2022/09/29 13:41:12;;;;;;;5.40;3.40;;;;;;;;;;4881237;29;20037;-64
2022/09/29 13:43:57;;;;;;;8.30;3.38;;;;;;;;;;4897062;29;20029;-64
2022/09/29 13:46:29;;;;;;;4.82;3.00;;;;;;;;;;4895491;29;20134;-63
2022/09/29 13:49:10;;;;;;;5.50;3.42;;;;;;;;;;4890523;29;20041;-63
2022/09/29 13:51:54;;;;;;;8.23;4.03;;;;;;;;;;4894653;29;20113;-64
2022/09/29 13:54:30;;;;;;;7.05;3.60;;;;;;;;;;4881732;29;20040;-64
2022/09/29 13:57:15;;;;;;;7.25;3.83;;;;;;;;;;4897577;29;20036;-63
2022/09/29 13:59:51;;;;;;;9.07;4.22;;;;;;;;;;4896837;29;20486;-65
2022/09/29 14:02:53;;;;;;;7.72;4.45;;;;;;;;;;4897257;29;20203;-65
2022/09/29 14:05:21;;;;;;;6.80;4.30;;;;;;;;;;4890154;29;20059;-64
2022/09/29 14:08:04;;;;;;;9.68;4.97;;;;;;;;;;4894737;29;20025;-61
2022/09/29 14:10:30;;;;;;;5.93;4.68;;;;;;;;;;4897471;29;20552;-62
2022/09/29 14:13:00;;;;;;;8.00;4.40;;;;;;;;;;4896303;29;20549;-64
2022/09/29 14:15:32;;;;;;;8.93;4.40;;;;;;;;;;4895888;29;20442;-63
2022/09/29 14:18:02;;;;;;;8.27;4.60;;;;;;;;;;4896161;29;20036;-60
2022/09/29 14:20:31;;;;;;;7.18;4.45;;;;;;;;;;4897460;29;20041;-63
2022/09/29 14:23:07;;;;;;;11.07;4.50;;;;;;;;;;4895026;29;20443;-61
2022/09/29 14:25:53;;;;;;;6.22;4.32;;;;;;;;;;4894873;29;20111;-63
2022/09/29 14:28:22;;;;;;;6.88;4.50;;;;;;;;;;4881422;29;20044;-63
2022/09/29 14:30:51;;;;;;;10.10;5.00;;;;;;;;;;4895199;29;20036;-62
2022/09/29 14:33:29;;;;;;;6.53;4.40;;;;;;;;;;4884721;29;20032;-69
2022/09/29 14:36:03;;;;;;;9.18;4.03;;;;;;;;;;4891297;29;20056;-62
2022/09/29 14:38:51;;;;;;;8.93;4.32;;;;;;;;;;4891664;29;20041;-62
2022/09/29 14:41:24;;;;;;;5.18;3.45;;;;;;;;;;4880205;29;20053;-61
2022/09/29 14:44:10;;;;;;;8.30;4.00;;;;;;;;;;4896174;29;20037;-61
2022/09/29 14:53:18;;;;;;;5.57;3.97;;;;;;;;;;4894625;29;20124;-61
2022/09/29 14:56:02;;;;;;;6.80;3.15;;;;;;;;;;4894930;29;20390;-61
2022/09/29 14:59:10;;;;;;;8.35;4.07;;;;;;;;;;4895879;29;20116;-61
2022/09/29 15:01:55;;;;;;;6.85;3.70;;;;;;;;;;4836557;29;20037;-61
2022/09/29 15:04:21;;;;;;;7.72;3.15;;;;;;;;;;4885879;29;20062;-62
2022/09/29 15:06:48;;;;;;;6.78;3.15;;;;;;;;;;4896526;29;20040;-63
2022/09/29 15:09:17;;;;;;;6.80;4.00;;;;;;;;;;4894605;29;20071;-63
2022/09/29 15:11:48;;;;;;;6.13;3.85;;;;;;;;;;4894003;29;20461;-63
2022/09/29 15:14:26;;;;;;;7.20;3.38;;;;;;;;;;4892677;29;20043;-63